GEG Airport (Spokane Intl) Information

FAA: GEG - ICAO: KGEG

GEG Airport Location

State Washington
County Spokane
City Spokane
GEG Airport is 5 miles southwest of Spokane, WA.
Latitude 47-37-08.5000N
Longitude 117-32-06.8000W
Elevation 2,385ft

KGEG Airport METARs

METAR KGEG 181253Z 17004KT 3/4SM R21/P6000FT BR SCT002 OVC003 M01/M02 A2995 RMK AO2 SFC VIS 2 1/2 SLP161 T10111022
Altimeter 29.95"
Temperature -1.1°C (30.0°F)
Wind 170° at 4KT
Clouds scattered at 200ft overcast at 300ft
Visibility 0.75mi
Time observed: 2022-01-18T12:53:00Z

GEG Airport Details

Status Operational
Activation August 1943
Ownership Public
Usage Public
Chart SEATTLE
ATC on-site Yes
Beacon schedule sunset-sunrise
Beacon color clear green

GEG Airport Contacts

Owner SPOKANE COUNTY-CITY
Owner address ARPT BOARD, 9000 W AIRPORT DRIVE, SPOKANE, WA 99224
Owner phone 509-455-6455
Manager CAROL WEHR
Manager address 6066 OLD OLYMPIC HWY, SEQUIM, WA 98382
Manager phone 206-683-5115

GEG Airport (Spokane Intl) Radio Frequencies

GEG (Airport) Radio Frequencies

UNICOM 122.95
Common traffic advisory frequency (CTAF) N/A